sensor_id;sensor_type;location;lat;lon;timestamp;P1;durP1;ratioP1;P2;durP2;ratioP2
29302;SDS011;60019;45.556;12.004;2023-02-26T00:04:19;66.60;;;38.60;;
29302;SDS011;60019;45.556;12.004;2023-02-26T00:10:21;71.28;;;39.95;;
29302;SDS011;60019;45.556;12.004;2023-02-26T00:22:25;69.47;;;38.30;;
29302;SDS011;60019;45.556;12.004;2023-02-26T00:28:27;62.67;;;35.92;;
29302;SDS011;60019;45.556;12.004;2023-02-26T00:34:29;63.90;;;37.33;;
29302;SDS011;60019;45.556;12.004;2023-02-26T00:40:37;68.55;;;36.92;;
29302;SDS011;60019;45.556;12.004;2023-02-26T00:59:03;66.57;;;38.60;;
29302;SDS011;60019;45.556;12.004;2023-02-26T01:05:05;44.97;;;21.80;;
29302;SDS011;60019;45.556;12.004;2023-02-26T01:11:07;18.70;;;10.15;;
29302;SDS011;60019;45.556;12.004;2023-02-26T01:17:28;13.85;;;5.45;;
29302;SDS011;60019;45.556;12.004;2023-02-26T01:23:40;7.28;;;3.42;;
29302;SDS011;60019;45.556;12.004;2023-02-26T01:29:44;5.50;;;2.63;;
29302;SDS011;60019;45.556;12.004;2023-02-26T01:35:49;6.72;;;2.00;;
29302;SDS011;60019;45.556;12.004;2023-02-26T01:41:54;4.70;;;1.40;;
29302;SDS011;60019;45.556;12.004;2023-02-26T01:54:27;14.27;;;1.63;;
29302;SDS011;60019;45.556;12.004;2023-02-26T02:00:31;4.47;;;1.33;;
29302;SDS011;60019;45.556;12.004;2023-02-26T02:06:33;3.05;;;1.50;;
29302;SDS011;60019;45.556;12.004;2023-02-26T02:12:37;3.25;;;1.60;;
29302;SDS011;60019;45.556;12.004;2023-02-26T02:18:45;2.20;;;1.92;;
29302;SDS011;60019;45.556;12.004;2023-02-26T02:37:20;1.75;;;1.33;;
29302;SDS011;60019;45.556;12.004;2023-02-26T02:43:24;2.20;;;1.50;;
29302;SDS011;60019;45.556;12.004;2023-02-26T02:55:34;2.75;;;1.75;;
29302;SDS011;60019;45.556;12.004;2023-02-26T03:01:37;2.33;;;1.38;;
29302;SDS011;60019;45.556;12.004;2023-02-26T03:07:52;2.15;;;0.85;;
29302;SDS011;60019;45.556;12.004;2023-02-26T03:13:54;1.67;;;1.10;;
29302;SDS011;60019;45.556;12.004;2023-02-26T03:26:14;1.02;;;0.90;;
29302;SDS011;60019;45.556;12.004;2023-02-26T03:32:21;0.60;;;0.50;;
29302;SDS011;60019;45.556;12.004;2023-02-26T03:38:27;2.42;;;0.55;;
29302;SDS011;60019;45.556;12.004;2023-02-26T03:44:36;0.85;;;0.60;;
29302;SDS011;60019;45.556;12.004;2023-02-26T03:50:45;1.60;;;0.50;;
29302;SDS011;60019;45.556;12.004;2023-02-26T03:57:06;3.10;;;0.38;;
29302;SDS011;60019;45.556;12.004;2023-02-26T04:03:27;0.60;;;0.60;;
29302;SDS011;60019;45.556;12.004;2023-02-26T04:09:32;1.23;;;0.45;;
29302;SDS011;60019;45.556;12.004;2023-02-26T04:15:34;0.50;;;0.50;;
29302;SDS011;60019;45.556;12.004;2023-02-26T04:21:36;0.40;;;0.30;;
29302;SDS011;60019;45.556;12.004;2023-02-26T04:27:39;0.57;;;0.45;;
29302;SDS011;60019;45.556;12.004;2023-02-26T04:33:41;1.13;;;0.45;;
29302;SDS011;60019;45.556;12.004;2023-02-26T04:39:43;1.52;;;0.55;;
29302;SDS011;60019;45.556;12.004;2023-02-26T04:45:46;0.35;;;0.28;;
29302;SDS011;60019;45.556;12.004;2023-02-26T04:51:49;0.82;;;0.40;;
29302;SDS011;60019;45.556;12.004;2023-02-26T04:57:51;0.57;;;0.35;;
29302;SDS011;60019;45.556;12.004;2023-02-26T05:03:58;0.73;;;0.60;;
29302;SDS011;60019;45.556;12.004;2023-02-26T05:10:01;0.80;;;0.50;;
29302;SDS011;60019;45.556;12.004;2023-02-26T05:16:03;0.43;;;0.40;;
29302;SDS011;60019;45.556;12.004;2023-02-26T05:22:05;0.60;;;0.55;;
29302;SDS011;60019;45.556;12.004;2023-02-26T05:28:07;0.40;;;0.40;;
29302;SDS011;60019;45.556;12.004;2023-02-26T05:34:09;0.40;;;0.40;;
29302;SDS011;60019;45.556;12.004;2023-02-26T05:40:11;0.25;;;0.25;;
29302;SDS011;60019;45.556;12.004;2023-02-26T05:46:13;0.30;;;0.30;;
29302;SDS011;60019;45.556;12.004;2023-02-26T05:52:15;0.30;;;0.30;;
29302;SDS011;60019;45.556;12.004;2023-02-26T05:58:17;0.43;;;0.43;;
29302;SDS011;60019;45.556;12.004;2023-02-26T06:04:19;1.13;;;0.40;;
29302;SDS011;60019;45.556;12.004;2023-02-26T06:10:21;0.20;;;0.20;;
29302;SDS011;60019;45.556;12.004;2023-02-26T06:16:23;0.55;;;0.55;;
29302;SDS011;60019;45.556;12.004;2023-02-26T06:22:25;0.52;;;0.45;;
29302;SDS011;60019;45.556;12.004;2023-02-26T06:28:27;0.55;;;0.55;;
29302;SDS011;60019;45.556;12.004;2023-02-26T06:34:29;0.50;;;0.50;;
29302;SDS011;60019;45.556;12.004;2023-02-26T06:40:31;0.60;;;0.60;;
29302;SDS011;60019;45.556;12.004;2023-02-26T06:46:33;0.50;;;0.50;;
29302;SDS011;60019;45.556;12.004;2023-02-26T06:52:35;0.80;;;0.80;;
29302;SDS011;60019;45.556;12.004;2023-02-26T06:58:37;0.75;;;0.60;;
29302;SDS011;60019;45.556;12.004;2023-02-26T07:04:39;0.90;;;0.50;;
29302;SDS011;60019;45.556;12.004;2023-02-26T07:10:41;0.60;;;0.60;;
29302;SDS011;60019;45.556;12.004;2023-02-26T07:16:43;2.28;;;1.80;;
29302;SDS011;60019;45.556;12.004;2023-02-26T07:22:45;1.80;;;1.48;;
29302;SDS011;60019;45.556;12.004;2023-02-26T07:28:47;3.30;;;2.83;;
29302;SDS011;60019;45.556;12.004;2023-02-26T07:34:49;2.70;;;1.90;;
29302;SDS011;60019;45.556;12.004;2023-02-26T07:40:53;1.23;;;1.13;;
29302;SDS011;60019;45.556;12.004;2023-02-26T07:46:56;0.80;;;0.80;;
29302;SDS011;60019;45.556;12.004;2023-02-26T07:52:58;2.35;;;0.85;;
29302;SDS011;60019;45.556;12.004;2023-02-26T07:58:59;1.00;;;0.90;;
29302;SDS011;60019;45.556;12.004;2023-02-26T08:05:01;1.63;;;1.00;;
29302;SDS011;60019;45.556;12.004;2023-02-26T08:11:03;0.82;;;0.82;;
29302;SDS011;60019;45.556;12.004;2023-02-26T08:17:06;0.88;;;0.73;;
29302;SDS011;60019;45.556;12.004;2023-02-26T08:23:08;1.10;;;0.77;;
29302;SDS011;60019;45.556;12.004;2023-02-26T08:29:10;5.03;;;1.30;;
29302;SDS011;60019;45.556;12.004;2023-02-26T08:35:11;2.78;;;0.80;;
29302;SDS011;60019;45.556;12.004;2023-02-26T08:41:13;2.58;;;1.13;;
29302;SDS011;60019;45.556;12.004;2023-02-26T08:47:15;3.17;;;1.30;;
29302;SDS011;60019;45.556;12.004;2023-02-26T08:53:17;5.13;;;1.80;;
29302;SDS011;60019;45.556;12.004;2023-02-26T08:59:19;1.63;;;1.10;;
29302;SDS011;60019;45.556;12.004;2023-02-26T09:05:21;2.05;;;1.00;;
29302;SDS011;60019;45.556;12.004;2023-02-26T09:11:23;4.07;;;1.25;;
29302;SDS011;60019;45.556;12.004;2023-02-26T09:17:25;2.97;;;1.10;;
29302;SDS011;60019;45.556;12.004;2023-02-26T09:23:27;3.17;;;1.55;;
29302;SDS011;60019;45.556;12.004;2023-02-26T09:29:29;1.67;;;1.45;;
29302;SDS011;60019;45.556;12.004;2023-02-26T09:35:31;2.13;;;1.50;;
29302;SDS011;60019;45.556;12.004;2023-02-26T09:41:35;1.50;;;1.20;;
29302;SDS011;60019;45.556;12.004;2023-02-26T09:47:39;1.88;;;1.33;;
29302;SDS011;60019;45.556;12.004;2023-02-26T09:53:45;4.30;;;1.10;;
29302;SDS011;60019;45.556;12.004;2023-02-26T09:59:50;1.52;;;1.13;;
29302;SDS011;60019;45.556;12.004;2023-02-26T10:12:18;5.00;;;2.13;;
29302;SDS011;60019;45.556;12.004;2023-02-26T10:18:31;1.85;;;1.48;;
29302;SDS011;60019;45.556;12.004;2023-02-26T10:24:39;1.83;;;1.40;;
29302;SDS011;60019;45.556;12.004;2023-02-26T10:30:43;2.40;;;1.27;;
29302;SDS011;60019;45.556;12.004;2023-02-26T10:42:59;14.63;;;6.75;;
29302;SDS011;60019;45.556;12.004;2023-02-26T11:01:20;3.42;;;2.35;;
29302;SDS011;60019;45.556;12.004;2023-02-26T11:07:22;17.75;;;7.47;;
29302;SDS011;60019;45.556;12.004;2023-02-26T11:13:26;28.92;;;14.02;;
29302;SDS011;60019;45.556;12.004;2023-02-26T11:19:37;17.13;;;8.30;;
29302;SDS011;60019;45.556;12.004;2023-02-26T11:25:40;8.90;;;5.25;;
29302;SDS011;60019;45.556;12.004;2023-02-26T11:31:46;8.52;;;2.72;;
29302;SDS011;60019;45.556;12.004;2023-02-26T11:37:51;4.75;;;2.63;;
29302;SDS011;60019;45.556;12.004;2023-02-26T11:43:59;34.05;;;8.80;;
29302;SDS011;60019;45.556;12.004;2023-02-26T11:50:02;35.35;;;9.38;;
29302;SDS011;60019;45.556;12.004;2023-02-26T11:56:19;31.40;;;8.30;;
29302;SDS011;60019;45.556;12.004;2023-02-26T12:02:22;32.25;;;8.82;;
29302;SDS011;60019;45.556;12.004;2023-02-26T12:38:59;4.78;;;2.85;;
29302;SDS011;60019;45.556;12.004;2023-02-26T12:57:34;3.38;;;2.03;;
29302;SDS011;60019;45.556;12.004;2023-02-26T13:23:15;2.55;;;2.30;;
29302;SDS011;60019;45.556;12.004;2023-02-26T13:35:38;12.00;;;5.57;;
29302;SDS011;60019;45.556;12.004;2023-02-26T14:00:28;3.08;;;1.98;;
29302;SDS011;60019;45.556;12.004;2023-02-26T14:12:43;2.83;;;2.13;;
29302;SDS011;60019;45.556;12.004;2023-02-26T14:31:04;3.17;;;1.83;;
29302;SDS011;60019;45.556;12.004;2023-02-26T14:37:07;3.70;;;2.08;;
29302;SDS011;60019;45.556;12.004;2023-02-26T14:43:15;5.20;;;1.90;;
29302;SDS011;60019;45.556;12.004;2023-02-26T14:49:53;2.65;;;1.80;;
29302;SDS011;60019;45.556;12.004;2023-02-26T15:08:15;3.50;;;1.63;;
29302;SDS011;60019;45.556;12.004;2023-02-26T15:14:31;5.55;;;1.42;;
29302;SDS011;60019;45.556;12.004;2023-02-26T15:20:47;2.95;;;1.67;;
29302;SDS011;60019;45.556;12.004;2023-02-26T15:26:55;3.78;;;1.70;;
29302;SDS011;60019;45.556;12.004;2023-02-26T15:33:02;4.45;;;2.42;;
29302;SDS011;60019;45.556;12.004;2023-02-26T15:39:05;3.53;;;2.40;;
29302;SDS011;60019;45.556;12.004;2023-02-26T15:45:13;6.22;;;2.30;;
29302;SDS011;60019;45.556;12.004;2023-02-26T15:51:17;4.47;;;1.77;;
29302;SDS011;60019;45.556;12.004;2023-02-26T15:57:20;4.47;;;1.92;;
29302;SDS011;60019;45.556;12.004;2023-02-26T16:03:24;9.23;;;3.10;;
29302;SDS011;60019;45.556;12.004;2023-02-26T16:09:32;7.30;;;3.58;;
29302;SDS011;60019;45.556;12.004;2023-02-26T16:15:37;7.50;;;3.40;;
29302;SDS011;60019;45.556;12.004;2023-02-26T16:21:39;13.25;;;2.45;;
29302;SDS011;60019;45.556;12.004;2023-02-26T16:27:42;7.07;;;2.38;;
29302;SDS011;60019;45.556;12.004;2023-02-26T16:33:58;3.88;;;2.28;;
29302;SDS011;60019;45.556;12.004;2023-02-26T16:46:13;7.20;;;2.55;;
29302;SDS011;60019;45.556;12.004;2023-02-26T16:52:20;6.63;;;2.85;;
29302;SDS011;60019;45.556;12.004;2023-02-26T16:58:23;5.63;;;2.45;;
29302;SDS011;60019;45.556;12.004;2023-02-26T17:04:27;3.85;;;2.10;;
29302;SDS011;60019;45.556;12.004;2023-02-26T17:10:33;4.28;;;2.45;;
29302;SDS011;60019;45.556;12.004;2023-02-26T17:16:35;4.45;;;2.55;;
29302;SDS011;60019;45.556;12.004;2023-02-26T17:22:37;3.85;;;1.77;;
29302;SDS011;60019;45.556;12.004;2023-02-26T17:28:40;6.72;;;2.22;;
29302;SDS011;60019;45.556;12.004;2023-02-26T17:34:42;7.47;;;2.50;;
29302;SDS011;60019;45.556;12.004;2023-02-26T17:40:44;4.75;;;2.30;;
29302;SDS011;60019;45.556;12.004;2023-02-26T17:46:54;2.80;;;2.17;;
29302;SDS011;60019;45.556;12.004;2023-02-26T17:52:56;3.72;;;2.10;;
29302;SDS011;60019;45.556;12.004;2023-02-26T17:58:58;15.80;;;8.40;;
29302;SDS011;60019;45.556;12.004;2023-02-26T18:05:01;14.60;;;6.40;;
29302;SDS011;60019;45.556;12.004;2023-02-26T18:11:03;10.55;;;4.93;;
29302;SDS011;60019;45.556;12.004;2023-02-26T18:17:05;6.45;;;3.88;;
29302;SDS011;60019;45.556;12.004;2023-02-26T18:23:07;5.35;;;3.45;;
29302;SDS011;60019;45.556;12.004;2023-02-26T18:29:13;5.05;;;2.90;;
29302;SDS011;60019;45.556;12.004;2023-02-26T18:35:15;5.43;;;3.13;;
29302;SDS011;60019;45.556;12.004;2023-02-26T18:41:17;4.82;;;3.05;;
29302;SDS011;60019;45.556;12.004;2023-02-26T18:47:20;7.45;;;2.67;;
29302;SDS011;60019;45.556;12.004;2023-02-26T18:53:22;5.50;;;2.60;;
29302;SDS011;60019;45.556;12.004;2023-02-26T18:59:26;4.88;;;2.33;;
29302;SDS011;60019;45.556;12.004;2023-02-26T19:05:28;6.78;;;2.85;;
29302;SDS011;60019;45.556;12.004;2023-02-26T19:11:30;4.32;;;2.38;;
29302;SDS011;60019;45.556;12.004;2023-02-26T19:17:32;2.83;;;1.95;;
29302;SDS011;60019;45.556;12.004;2023-02-26T19:23:34;2.20;;;1.70;;
29302;SDS011;60019;45.556;12.004;2023-02-26T19:29:36;5.00;;;2.10;;
29302;SDS011;60019;45.556;12.004;2023-02-26T19:35:39;3.22;;;2.10;;
29302;SDS011;60019;45.556;12.004;2023-02-26T19:41:41;2.95;;;2.00;;
29302;SDS011;60019;45.556;12.004;2023-02-26T19:47:43;1.77;;;1.50;;
29302;SDS011;60019;45.556;12.004;2023-02-26T19:53:45;3.75;;;2.17;;
29302;SDS011;60019;45.556;12.004;2023-02-26T19:59:47;3.17;;;1.95;;
29302;SDS011;60019;45.556;12.004;2023-02-26T20:05:49;2.80;;;1.80;;
29302;SDS011;60019;45.556;12.004;2023-02-26T20:11:51;4.03;;;1.90;;
29302;SDS011;60019;45.556;12.004;2023-02-26T20:17:53;1.52;;;1.42;;
29302;SDS011;60019;45.556;12.004;2023-02-26T20:23:55;2.20;;;1.80;;
29302;SDS011;60019;45.556;12.004;2023-02-26T20:29:57;3.40;;;2.13;;
29302;SDS011;60019;45.556;12.004;2023-02-26T20:35:59;1.98;;;1.55;;
29302;SDS011;60019;45.556;12.004;2023-02-26T20:42:01;2.30;;;1.85;;
29302;SDS011;60019;45.556;12.004;2023-02-26T20:48:05;2.15;;;1.92;;
29302;SDS011;60019;45.556;12.004;2023-02-26T20:54:08;3.25;;;2.00;;
29302;SDS011;60019;45.556;12.004;2023-02-26T21:00:10;3.22;;;1.80;;
29302;SDS011;60019;45.556;12.004;2023-02-26T21:06:15;2.78;;;2.00;;
29302;SDS011;60019;45.556;12.004;2023-02-26T21:12:17;2.28;;;1.67;;
29302;SDS011;60019;45.556;12.004;2023-02-26T21:18:19;2.20;;;1.50;;
29302;SDS011;60019;45.556;12.004;2023-02-26T21:24:21;2.28;;;1.85;;
29302;SDS011;60019;45.556;12.004;2023-02-26T21:30:24;1.48;;;1.30;;
29302;SDS011;60019;45.556;12.004;2023-02-26T21:36:28;1.30;;;1.20;;
29302;SDS011;60019;45.556;12.004;2023-02-26T21:42:31;3.17;;;1.85;;
29302;SDS011;60019;45.556;12.004;2023-02-26T21:48:33;1.60;;;1.40;;
29302;SDS011;60019;45.556;12.004;2023-02-26T21:54:35;12.77;;;6.10;;
29302;SDS011;60019;45.556;12.004;2023-02-26T22:00:37;30.33;;;15.15;;
29302;SDS011;60019;45.556;12.004;2023-02-26T22:06:39;19.88;;;9.68;;
29302;SDS011;60019;45.556;12.004;2023-02-26T22:12:41;11.75;;;6.13;;
29302;SDS011;60019;45.556;12.004;2023-02-26T22:18:43;6.80;;;4.30;;
29302;SDS011;60019;45.556;12.004;2023-02-26T22:24:45;4.05;;;2.58;;
29302;SDS011;60019;45.556;12.004;2023-02-26T22:30:46;3.35;;;2.35;;
29302;SDS011;60019;45.556;12.004;2023-02-26T22:36:48;3.30;;;2.13;;
29302;SDS011;60019;45.556;12.004;2023-02-26T22:42:51;2.25;;;1.50;;
29302;SDS011;60019;45.556;12.004;2023-02-26T22:48:54;2.08;;;1.30;;
29302;SDS011;60019;45.556;12.004;2023-02-26T22:54:56;2.38;;;1.40;;
29302;SDS011;60019;45.556;12.004;2023-02-26T23:01:01;2.40;;;1.33;;
29302;SDS011;60019;45.556;12.004;2023-02-26T23:07:03;2.70;;;1.67;;
29302;SDS011;60019;45.556;12.004;2023-02-26T23:13:05;1.60;;;1.23;;
29302;SDS011;60019;45.556;12.004;2023-02-26T23:19:07;3.53;;;1.30;;
29302;SDS011;60019;45.556;12.004;2023-02-26T23:25:10;2.00;;;1.33;;
29302;SDS011;60019;45.556;12.004;2023-02-26T23:31:12;2.03;;;1.20;;
29302;SDS011;60019;45.556;12.004;2023-02-26T23:37:14;1.23;;;1.08;;
29302;SDS011;60019;45.556;12.004;2023-02-26T23:43:16;1.63;;;1.25;;
29302;SDS011;60019;45.556;12.004;2023-02-26T23:49:18;2.28;;;1.20;;
29302;SDS011;60019;45.556;12.004;2023-02-26T23:55:20;1.60;;;1.50;;
